sensor_id;sensor_type;location;lat;lon;timestamp;P1;durP1;ratioP1;P2;durP2;ratioP2
11334;SDS011;5722;42.620;23.374;2024-03-02T00:05:15;27.07;;;19.63;;
11334;SDS011;5722;42.620;23.374;2024-03-02T00:08:01;25.60;;;17.67;;
11334;SDS011;5722;42.620;23.374;2024-03-02T05:09:34;28.93;;;19.73;;
11334;SDS011;5722;42.620;23.374;2024-03-02T05:19:52;23.63;;;16.13;;
11334;SDS011;5722;42.620;23.374;2024-03-02T05:38:53;26.37;;;17.43;;
11334;SDS011;5722;42.620;23.374;2024-03-02T05:41:23;28.97;;;18.47;;
11334;SDS011;5722;42.620;23.374;2024-03-02T05:44:05;30.03;;;19.73;;
11334;SDS011;5722;42.620;23.374;2024-03-02T05:49:44;26.50;;;17.73;;
11334;SDS011;5722;42.620;23.374;2024-03-02T05:52:15;27.40;;;16.97;;
11334;SDS011;5722;42.620;23.374;2024-03-02T05:54:50;26.33;;;17.80;;
11334;SDS011;5722;42.620;23.374;2024-03-02T05:57:19;25.50;;;18.77;;
11334;SDS011;5722;42.620;23.374;2024-03-02T06:00:14;28.07;;;18.63;;
11334;SDS011;5722;42.620;23.374;2024-03-02T06:02:44;25.43;;;18.03;;
11334;SDS011;5722;42.620;23.374;2024-03-02T06:05:16;24.73;;;18.00;;
11334;SDS011;5722;42.620;23.374;2024-03-02T06:07:58;25.57;;;18.30;;
11334;SDS011;5722;42.620;23.374;2024-03-02T06:10:29;22.37;;;15.87;;
11334;SDS011;5722;42.620;23.374;2024-03-02T06:12:58;27.93;;;16.97;;
11334;SDS011;5722;42.620;23.374;2024-03-02T06:18:24;25.73;;;16.43;;
11334;SDS011;5722;42.620;23.374;2024-03-02T06:20:55;23.80;;;17.37;;
11334;SDS011;5722;42.620;23.374;2024-03-02T06:23:29;23.33;;;16.23;;
11334;SDS011;5722;42.620;23.374;2024-03-02T06:26:24;23.37;;;16.43;;
11334;SDS011;5722;42.620;23.374;2024-03-02T06:29:20;26.53;;;18.00;;
11334;SDS011;5722;42.620;23.374;2024-03-02T06:34:41;24.23;;;17.27;;
11334;SDS011;5722;42.620;23.374;2024-03-02T06:37:11;26.00;;;17.20;;
11334;SDS011;5722;42.620;23.374;2024-03-02T06:39:43;24.27;;;17.87;;
11334;SDS011;5722;42.620;23.374;2024-03-02T06:42:22;28.23;;;18.90;;
11334;SDS011;5722;42.620;23.374;2024-03-02T06:44:51;24.00;;;17.33;;
11334;SDS011;5722;42.620;23.374;2024-03-02T06:47:32;27.33;;;18.67;;
11334;SDS011;5722;42.620;23.374;2024-03-02T06:50:00;27.03;;;18.83;;
11334;SDS011;5722;42.620;23.374;2024-03-02T06:52:47;29.30;;;20.13;;
11334;SDS011;5722;42.620;23.374;2024-03-02T06:55:21;32.10;;;19.33;;
11334;SDS011;5722;42.620;23.374;2024-03-02T06:57:50;31.93;;;20.43;;
11334;SDS011;5722;42.620;23.374;2024-03-02T07:00:46;28.47;;;19.57;;
11334;SDS011;5722;42.620;23.374;2024-03-02T07:06:02;27.23;;;19.00;;
11334;SDS011;5722;42.620;23.374;2024-03-02T07:08:37;31.73;;;20.07;;
11334;SDS011;5722;42.620;23.374;2024-03-02T07:11:06;30.67;;;20.53;;
11334;SDS011;5722;42.620;23.374;2024-03-02T07:13:43;28.03;;;19.33;;
11334;SDS011;5722;42.620;23.374;2024-03-02T07:16:20;30.97;;;20.90;;
11334;SDS011;5722;42.620;23.374;2024-03-02T07:18:59;29.13;;;19.00;;
11334;SDS011;5722;42.620;23.374;2024-03-02T07:21:32;32.67;;;20.27;;
11334;SDS011;5722;42.620;23.374;2024-03-02T07:24:02;27.27;;;19.17;;
11334;SDS011;5722;42.620;23.374;2024-03-02T07:26:34;26.20;;;19.07;;
11334;SDS011;5722;42.620;23.374;2024-03-02T07:29:09;29.03;;;19.60;;
11334;SDS011;5722;42.620;23.374;2024-03-02T07:31:37;29.60;;;19.63;;
11334;SDS011;5722;42.620;23.374;2024-03-02T07:34:26;30.10;;;20.10;;
11334;SDS011;5722;42.620;23.374;2024-03-02T07:39:43;29.53;;;20.07;;
11334;SDS011;5722;42.620;23.374;2024-03-02T07:42:14;31.57;;;20.17;;
11334;SDS011;5722;42.620;23.374;2024-03-02T07:44:44;30.73;;;20.77;;
11334;SDS011;5722;42.620;23.374;2024-03-02T07:50:18;31.27;;;20.03;;
11334;SDS011;5722;42.620;23.374;2024-03-02T07:52:51;32.47;;;21.50;;
11334;SDS011;5722;42.620;23.374;2024-03-02T08:06:44;33.47;;;20.50;;
11334;SDS011;5722;42.620;23.374;2024-03-02T08:09:14;32.33;;;20.93;;
11334;SDS011;5722;42.620;23.374;2024-03-02T08:15:13;32.03;;;20.90;;
11334;SDS011;5722;42.620;23.374;2024-03-02T08:17:40;35.33;;;21.47;;
11334;SDS011;5722;42.620;23.374;2024-03-02T08:20:16;35.00;;;21.80;;
11334;SDS011;5722;42.620;23.374;2024-03-02T08:22:54;35.53;;;21.53;;
11334;SDS011;5722;42.620;23.374;2024-03-02T08:25:24;33.97;;;21.37;;
11334;SDS011;5722;42.620;23.374;2024-03-02T08:28:01;39.87;;;21.30;;
11334;SDS011;5722;42.620;23.374;2024-03-02T08:30:41;38.00;;;21.27;;
11334;SDS011;5722;42.620;23.374;2024-03-02T08:33:27;34.40;;;22.00;;
11334;SDS011;5722;42.620;23.374;2024-03-02T08:41:52;42.33;;;22.40;;
11334;SDS011;5722;42.620;23.374;2024-03-02T08:44:24;38.67;;;23.87;;
11334;SDS011;5722;42.620;23.374;2024-03-02T08:53:17;30.73;;;19.93;;
11334;SDS011;5722;42.620;23.374;2024-03-02T08:58:41;27.77;;;19.67;;
11334;SDS011;5722;42.620;23.374;2024-03-02T09:01:23;24.50;;;18.07;;
11334;SDS011;5722;42.620;23.374;2024-03-02T09:03:55;25.27;;;17.47;;
11334;SDS011;5722;42.620;23.374;2024-03-02T09:06:30;24.27;;;17.43;;
11334;SDS011;5722;42.620;23.374;2024-03-02T09:09:15;24.73;;;17.10;;
11334;SDS011;5722;42.620;23.374;2024-03-02T09:15:00;23.23;;;16.20;;
11334;SDS011;5722;42.620;23.374;2024-03-02T09:17:34;22.03;;;15.50;;
11334;SDS011;5722;42.620;23.374;2024-03-02T09:20:10;19.40;;;14.57;;
11334;SDS011;5722;42.620;23.374;2024-03-02T09:22:42;18.73;;;14.00;;
11334;SDS011;5722;42.620;23.374;2024-03-02T09:25:14;16.87;;;12.67;;
11334;SDS011;5722;42.620;23.374;2024-03-02T09:27:54;17.43;;;13.23;;
11334;SDS011;5722;42.620;23.374;2024-03-02T09:30:27;18.10;;;13.37;;
11334;SDS011;5722;42.620;23.374;2024-03-02T09:33:16;15.73;;;12.60;;
11334;SDS011;5722;42.620;23.374;2024-03-02T09:35:45;16.37;;;11.80;;
11334;SDS011;5722;42.620;23.374;2024-03-02T09:38:26;14.13;;;11.70;;
11334;SDS011;5722;42.620;23.374;2024-03-02T09:41:27;16.97;;;13.07;;
11334;SDS011;5722;42.620;23.374;2024-03-02T09:47:13;20.10;;;14.47;;
11334;SDS011;5722;42.620;23.374;2024-03-02T09:49:54;26.97;;;19.17;;
11334;SDS011;5722;42.620;23.374;2024-03-02T09:52:27;30.87;;;21.87;;
11334;SDS011;5722;42.620;23.374;2024-03-02T09:54:57;30.70;;;21.20;;
11334;SDS011;5722;42.620;23.374;2024-03-02T09:57:25;21.67;;;15.93;;
11334;SDS011;5722;42.620;23.374;2024-03-02T10:00:12;25.53;;;17.53;;
11334;SDS011;5722;42.620;23.374;2024-03-02T10:02:51;22.83;;;17.17;;
11334;SDS011;5722;42.620;23.374;2024-03-02T10:05:38;25.27;;;16.60;;
11334;SDS011;5722;42.620;23.374;2024-03-02T10:08:14;22.30;;;16.80;;
11334;SDS011;5722;42.620;23.374;2024-03-02T10:10:48;24.40;;;17.67;;
11334;SDS011;5722;42.620;23.374;2024-03-02T10:13:28;22.00;;;15.77;;
11334;SDS011;5722;42.620;23.374;2024-03-02T10:16:08;20.40;;;14.63;;
11334;SDS011;5722;42.620;23.374;2024-03-02T10:18:43;22.37;;;15.53;;
11334;SDS011;5722;42.620;23.374;2024-03-02T10:21:14;22.17;;;16.10;;
11334;SDS011;5722;42.620;23.374;2024-03-02T10:23:55;24.80;;;16.50;;
11334;SDS011;5722;42.620;23.374;2024-03-02T10:26:43;20.83;;;15.00;;
11334;SDS011;5722;42.620;23.374;2024-03-02T10:29:37;23.03;;;16.63;;
11334;SDS011;5722;42.620;23.374;2024-03-02T10:32:15;26.00;;;16.03;;
11334;SDS011;5722;42.620;23.374;2024-03-02T10:34:58;22.17;;;15.33;;
11334;SDS011;5722;42.620;23.374;2024-03-02T10:37:33;24.63;;;16.53;;
11334;SDS011;5722;42.620;23.374;2024-03-02T10:40:49;24.10;;;15.67;;
11334;SDS011;5722;42.620;23.374;2024-03-02T10:43:18;23.03;;;14.20;;
11334;SDS011;5722;42.620;23.374;2024-03-02T10:46:14;25.13;;;15.10;;
11334;SDS011;5722;42.620;23.374;2024-03-02T10:49:05;21.90;;;15.20;;
11334;SDS011;5722;42.620;23.374;2024-03-02T10:51:48;18.53;;;12.83;;
11334;SDS011;5722;42.620;23.374;2024-03-02T10:54:20;18.47;;;12.97;;
11334;SDS011;5722;42.620;23.374;2024-03-02T10:56:55;19.83;;;13.57;;
11334;SDS011;5722;42.620;23.374;2024-03-02T11:02:29;22.17;;;14.83;;
11334;SDS011;5722;42.620;23.374;2024-03-02T11:05:08;17.80;;;13.47;;
11334;SDS011;5722;42.620;23.374;2024-03-02T11:08:06;16.17;;;12.03;;
11334;SDS011;5722;42.620;23.374;2024-03-02T11:10:45;17.40;;;12.57;;
11334;SDS011;5722;42.620;23.374;2024-03-02T11:13:24;19.40;;;12.23;;
11334;SDS011;5722;42.620;23.374;2024-03-02T11:16:15;17.33;;;12.80;;
11334;SDS011;5722;42.620;23.374;2024-03-02T11:19:04;17.77;;;13.17;;
11334;SDS011;5722;42.620;23.374;2024-03-02T11:24:36;22.33;;;14.03;;
11334;SDS011;5722;42.620;23.374;2024-03-02T11:33:33;19.00;;;12.70;;
11334;SDS011;5722;42.620;23.374;2024-03-02T11:39:10;19.37;;;13.87;;
11334;SDS011;5722;42.620;23.374;2024-03-02T11:41:42;21.03;;;14.10;;
11334;SDS011;5722;42.620;23.374;2024-03-02T11:44:11;22.63;;;14.27;;
11334;SDS011;5722;42.620;23.374;2024-03-02T11:47:05;22.17;;;14.23;;
11334;SDS011;5722;42.620;23.374;2024-03-02T11:49:50;19.13;;;14.23;;
11334;SDS011;5722;42.620;23.374;2024-03-02T11:52:28;20.63;;;14.60;;
11334;SDS011;5722;42.620;23.374;2024-03-02T12:01:00;21.40;;;14.60;;
11334;SDS011;5722;42.620;23.374;2024-03-02T12:09:22;21.87;;;13.97;;
11334;SDS011;5722;42.620;23.374;2024-03-02T12:12:09;19.43;;;13.60;;
11334;SDS011;5722;42.620;23.374;2024-03-02T12:14:54;28.10;;;18.70;;
11334;SDS011;5722;42.620;23.374;2024-03-02T12:17:33;34.13;;;22.27;;
11334;SDS011;5722;42.620;23.374;2024-03-02T12:20:12;29.57;;;19.03;;
11334;SDS011;5722;42.620;23.374;2024-03-02T12:29:43;17.43;;;13.70;;
11334;SDS011;5722;42.620;23.374;2024-03-02T12:32:24;19.57;;;13.33;;
11334;SDS011;5722;42.620;23.374;2024-03-02T12:38:48;18.10;;;13.57;;
11334;SDS011;5722;42.620;23.374;2024-03-02T12:45:01;18.00;;;13.43;;
11334;SDS011;5722;42.620;23.374;2024-03-02T13:09:37;17.23;;;13.47;;
11334;SDS011;5722;42.620;23.374;2024-03-02T13:12:54;16.53;;;13.50;;
11334;SDS011;5722;42.620;23.374;2024-03-02T13:15:54;16.67;;;12.27;;
11334;SDS011;5722;42.620;23.374;2024-03-02T13:28:28;16.17;;;12.47;;
11334;SDS011;5722;42.620;23.374;2024-03-02T13:40:39;17.57;;;12.87;;
11334;SDS011;5722;42.620;23.374;2024-03-02T13:43:14;16.20;;;13.03;;
11334;SDS011;5722;42.620;23.374;2024-03-02T13:46:16;17.23;;;13.40;;
11334;SDS011;5722;42.620;23.374;2024-03-02T13:51:45;17.30;;;13.57;;
11334;SDS011;5722;42.620;23.374;2024-03-02T13:54:58;19.53;;;14.53;;
11334;SDS011;5722;42.620;23.374;2024-03-02T13:57:32;20.17;;;15.40;;
11334;SDS011;5722;42.620;23.374;2024-03-02T14:00:01;19.30;;;14.60;;
11334;SDS011;5722;42.620;23.374;2024-03-02T14:09:52;16.70;;;13.90;;
11334;SDS011;5722;42.620;23.374;2024-03-02T14:12:24;18.83;;;13.57;;
11334;SDS011;5722;42.620;23.374;2024-03-02T14:22:04;19.93;;;15.03;;
11334;SDS011;5722;42.620;23.374;2024-03-02T14:24:47;19.87;;;15.47;;
11334;SDS011;5722;42.620;23.374;2024-03-02T14:27:43;19.73;;;15.30;;
11334;SDS011;5722;42.620;23.374;2024-03-02T14:30:34;21.70;;;14.87;;
11334;SDS011;5722;42.620;23.374;2024-03-02T14:40:02;18.03;;;14.50;;
11334;SDS011;5722;42.620;23.374;2024-03-02T14:46:24;22.30;;;17.33;;
11334;SDS011;5722;42.620;23.374;2024-03-02T14:52:20;23.83;;;17.80;;
11334;SDS011;5722;42.620;23.374;2024-03-02T15:01:44;21.80;;;17.30;;
11334;SDS011;5722;42.620;23.374;2024-03-02T15:04:31;21.17;;;16.80;;
11334;SDS011;5722;42.620;23.374;2024-03-02T15:07:16;24.13;;;17.43;;
11334;SDS011;5722;42.620;23.374;2024-03-02T15:13:18;24.43;;;17.13;;
11334;SDS011;5722;42.620;23.374;2024-03-02T15:19:34;21.43;;;16.73;;
11334;SDS011;5722;42.620;23.374;2024-03-02T15:24:58;24.40;;;19.07;;
11334;SDS011;5722;42.620;23.374;2024-03-02T15:27:35;26.37;;;19.17;;
11334;SDS011;5722;42.620;23.374;2024-03-02T15:36:15;29.60;;;20.53;;
11334;SDS011;5722;42.620;23.374;2024-03-02T15:38:49;30.37;;;21.03;;
11334;SDS011;5722;42.620;23.374;2024-03-02T15:44:27;27.73;;;21.60;;
11334;SDS011;5722;42.620;23.374;2024-03-02T15:47:36;28.57;;;20.17;;
11334;SDS011;5722;42.620;23.374;2024-03-02T15:53:19;31.30;;;22.90;;
11334;SDS011;5722;42.620;23.374;2024-03-02T15:55:51;31.10;;;24.27;;
11334;SDS011;5722;42.620;23.374;2024-03-02T15:58:30;32.93;;;24.67;;
11334;SDS011;5722;42.620;23.374;2024-03-02T16:01:03;32.67;;;24.03;;
11334;SDS011;5722;42.620;23.374;2024-03-02T16:03:39;32.87;;;23.83;;
11334;SDS011;5722;42.620;23.374;2024-03-02T16:06:20;28.27;;;22.57;;
11334;SDS011;5722;42.620;23.374;2024-03-02T16:08:58;29.77;;;21.53;;
11334;SDS011;5722;42.620;23.374;2024-03-02T16:11:32;30.10;;;23.53;;
11334;SDS011;5722;42.620;23.374;2024-03-02T16:14:04;28.80;;;22.07;;
11334;SDS011;5722;42.620;23.374;2024-03-02T16:16:42;29.83;;;22.43;;
11334;SDS011;5722;42.620;23.374;2024-03-02T16:19:48;29.43;;;22.13;;
11334;SDS011;5722;42.620;23.374;2024-03-02T16:25:37;27.03;;;20.43;;
11334;SDS011;5722;42.620;23.374;2024-03-02T16:28:07;27.43;;;21.30;;
11334;SDS011;5722;42.620;23.374;2024-03-02T16:30:37;29.97;;;21.77;;
11334;SDS011;5722;42.620;23.374;2024-03-02T16:33:14;27.83;;;21.07;;
11334;SDS011;5722;42.620;23.374;2024-03-02T16:35:49;30.13;;;20.47;;
11334;SDS011;5722;42.620;23.374;2024-03-02T16:38:36;31.87;;;23.80;;
11334;SDS011;5722;42.620;23.374;2024-03-02T16:41:38;38.70;;;28.77;;
11334;SDS011;5722;42.620;23.374;2024-03-02T16:44:14;39.70;;;27.90;;
11334;SDS011;5722;42.620;23.374;2024-03-02T16:46:48;35.03;;;25.93;;
11334;SDS011;5722;42.620;23.374;2024-03-02T16:49:24;43.17;;;30.57;;
11334;SDS011;5722;42.620;23.374;2024-03-02T16:52:04;43.03;;;30.97;;
11334;SDS011;5722;42.620;23.374;2024-03-02T16:54:47;46.37;;;30.40;;
11334;SDS011;5722;42.620;23.374;2024-03-02T16:57:26;41.67;;;29.80;;
11334;SDS011;5722;42.620;23.374;2024-03-02T16:59:59;39.33;;;29.07;;
11334;SDS011;5722;42.620;23.374;2024-03-02T17:02:40;42.03;;;30.33;;
11334;SDS011;5722;42.620;23.374;2024-03-02T17:05:16;49.03;;;35.13;;
11334;SDS011;5722;42.620;23.374;2024-03-02T17:07:52;47.30;;;32.67;;
11334;SDS011;5722;42.620;23.374;2024-03-02T17:10:25;45.77;;;32.33;;
11334;SDS011;5722;42.620;23.374;2024-03-02T17:13:02;47.03;;;35.40;;
11334;SDS011;5722;42.620;23.374;2024-03-02T17:16:04;48.13;;;36.90;;
11334;SDS011;5722;42.620;23.374;2024-03-02T17:18:43;46.17;;;34.70;;
11334;SDS011;5722;42.620;23.374;2024-03-02T17:21:12;46.93;;;35.47;;
11334;SDS011;5722;42.620;23.374;2024-03-02T17:46:42;45.90;;;26.77;;
11334;SDS011;5722;42.620;23.374;2024-03-02T17:52:07;55.00;;;38.87;;
11334;SDS011;5722;42.620;23.374;2024-03-02T17:54:47;55.03;;;38.30;;
11334;SDS011;5722;42.620;23.374;2024-03-02T17:57:16;59.33;;;37.17;;
11334;SDS011;5722;42.620;23.374;2024-03-02T18:02:42;86.73;;;49.77;;
11334;SDS011;5722;42.620;23.374;2024-03-02T18:05:31;69.70;;;41.30;;
11334;SDS011;5722;42.620;23.374;2024-03-02T18:08:26;52.60;;;33.93;;
11334;SDS011;5722;42.620;23.374;2024-03-02T18:11:20;41.30;;;27.97;;
11334;SDS011;5722;42.620;23.374;2024-03-02T18:13:54;38.13;;;27.73;;
11334;SDS011;5722;42.620;23.374;2024-03-02T18:25:30;43.00;;;30.20;;
11334;SDS011;5722;42.620;23.374;2024-03-02T18:28:11;29.37;;;22.77;;
11334;SDS011;5722;42.620;23.374;2024-03-02T18:33:55;30.17;;;22.13;;
11334;SDS011;5722;42.620;23.374;2024-03-02T18:36:34;30.13;;;23.97;;
11334;SDS011;5722;42.620;23.374;2024-03-02T18:39:15;31.93;;;22.13;;
11334;SDS011;5722;42.620;23.374;2024-03-02T18:41:49;28.83;;;23.47;;
11334;SDS011;5722;42.620;23.374;2024-03-02T18:44:28;35.10;;;29.07;;
11334;SDS011;5722;42.620;23.374;2024-03-02T18:47:14;33.90;;;27.47;;
11334;SDS011;5722;42.620;23.374;2024-03-02T18:49:48;28.53;;;23.30;;
11334;SDS011;5722;42.620;23.374;2024-03-02T18:52:31;28.77;;;22.10;;
11334;SDS011;5722;42.620;23.374;2024-03-02T18:58:07;29.13;;;22.17;;
11334;SDS011;5722;42.620;23.374;2024-03-02T19:01:02;32.03;;;26.27;;
11334;SDS011;5722;42.620;23.374;2024-03-02T19:03:44;32.83;;;25.63;;
11334;SDS011;5722;42.620;23.374;2024-03-02T19:06:46;34.13;;;25.70;;
11334;SDS011;5722;42.620;23.374;2024-03-02T19:09:23;40.77;;;27.87;;
11334;SDS011;5722;42.620;23.374;2024-03-02T19:12:05;41.40;;;28.93;;
11334;SDS011;5722;42.620;23.374;2024-03-02T19:14:36;41.40;;;29.47;;
11334;SDS011;5722;42.620;23.374;2024-03-02T19:17:42;40.50;;;28.27;;
11334;SDS011;5722;42.620;23.374;2024-03-02T19:23:12;54.50;;;36.90;;
11334;SDS011;5722;42.620;23.374;2024-03-02T19:26:09;47.40;;;32.43;;
11334;SDS011;5722;42.620;23.374;2024-03-02T19:29:02;47.17;;;30.47;;
11334;SDS011;5722;42.620;23.374;2024-03-02T19:31:42;45.10;;;31.00;;
11334;SDS011;5722;42.620;23.374;2024-03-02T19:37:27;45.33;;;31.83;;
11334;SDS011;5722;42.620;23.374;2024-03-02T19:40:13;46.07;;;31.67;;
11334;SDS011;5722;42.620;23.374;2024-03-02T19:42:57;43.77;;;30.53;;
11334;SDS011;5722;42.620;23.374;2024-03-02T19:48:28;50.83;;;31.83;;
11334;SDS011;5722;42.620;23.374;2024-03-02T19:51:09;51.77;;;34.67;;
11334;SDS011;5722;42.620;23.374;2024-03-02T19:53:42;48.70;;;33.57;;
11334;SDS011;5722;42.620;23.374;2024-03-02T19:56:30;42.47;;;28.50;;
11334;SDS011;5722;42.620;23.374;2024-03-02T19:59:23;64.40;;;44.33;;
11334;SDS011;5722;42.620;23.374;2024-03-02T20:02:21;51.23;;;35.03;;
11334;SDS011;5722;42.620;23.374;2024-03-02T20:04:55;43.00;;;28.40;;
11334;SDS011;5722;42.620;23.374;2024-03-02T20:07:29;32.50;;;23.17;;
11334;SDS011;5722;42.620;23.374;2024-03-02T20:10:05;30.03;;;19.37;;
11334;SDS011;5722;42.620;23.374;2024-03-02T20:12:48;34.83;;;24.40;;
11334;SDS011;5722;42.620;23.374;2024-03-02T20:15:25;51.97;;;35.20;;
11334;SDS011;5722;42.620;23.374;2024-03-02T20:18:10;41.77;;;29.00;;
11334;SDS011;5722;42.620;23.374;2024-03-02T20:20:53;39.53;;;28.57;;
11334;SDS011;5722;42.620;23.374;2024-03-02T20:23:38;40.27;;;27.10;;
11334;SDS011;5722;42.620;23.374;2024-03-02T20:26:33;32.50;;;24.03;;
11334;SDS011;5722;42.620;23.374;2024-03-02T20:29:32;34.87;;;23.87;;
11334;SDS011;5722;42.620;23.374;2024-03-02T20:32:11;32.20;;;23.57;;
11334;SDS011;5722;42.620;23.374;2024-03-02T20:35:25;35.23;;;23.97;;
11334;SDS011;5722;42.620;23.374;2024-03-02T20:38:15;34.77;;;24.47;;
11334;SDS011;5722;42.620;23.374;2024-03-02T20:41:24;39.07;;;23.23;;
11334;SDS011;5722;42.620;23.374;2024-03-02T20:44:13;33.90;;;23.03;;
11334;SDS011;5722;42.620;23.374;2024-03-02T20:47:09;31.97;;;23.37;;
11334;SDS011;5722;42.620;23.374;2024-03-02T20:53:01;33.30;;;22.07;;
11334;SDS011;5722;42.620;23.374;2024-03-02T20:55:39;37.30;;;26.87;;
11334;SDS011;5722;42.620;23.374;2024-03-02T20:58:10;38.03;;;27.47;;
11334;SDS011;5722;42.620;23.374;2024-03-02T21:00:49;43.80;;;29.43;;
11334;SDS011;5722;42.620;23.374;2024-03-02T21:03:27;39.83;;;28.67;;
11334;SDS011;5722;42.620;23.374;2024-03-02T21:06:03;43.17;;;29.13;;
11334;SDS011;5722;42.620;23.374;2024-03-02T21:12:24;42.80;;;28.27;;
11334;SDS011;5722;42.620;23.374;2024-03-02T21:14:57;40.63;;;28.30;;
11334;SDS011;5722;42.620;23.374;2024-03-02T21:20:34;39.93;;;28.70;;
11334;SDS011;5722;42.620;23.374;2024-03-02T21:23:23;42.47;;;28.80;;
11334;SDS011;5722;42.620;23.374;2024-03-02T21:26:21;38.50;;;27.50;;
11334;SDS011;5722;42.620;23.374;2024-03-02T21:31:58;44.70;;;29.67;;
11334;SDS011;5722;42.620;23.374;2024-03-02T21:34:37;40.17;;;28.83;;
11334;SDS011;5722;42.620;23.374;2024-03-02T21:37:21;41.97;;;31.63;;
11334;SDS011;5722;42.620;23.374;2024-03-02T21:39:56;43.50;;;29.10;;
11334;SDS011;5722;42.620;23.374;2024-03-02T21:42:40;40.53;;;29.10;;
11334;SDS011;5722;42.620;23.374;2024-03-02T21:45:22;34.60;;;24.80;;
11334;SDS011;5722;42.620;23.374;2024-03-02T21:47:55;35.03;;;25.47;;
11334;SDS011;5722;42.620;23.374;2024-03-02T21:50:35;34.30;;;25.13;;
11334;SDS011;5722;42.620;23.374;2024-03-02T21:53:13;34.63;;;23.70;;
11334;SDS011;5722;42.620;23.374;2024-03-02T21:59:21;38.30;;;24.97;;
11334;SDS011;5722;42.620;23.374;2024-03-02T22:02:07;27.53;;;19.97;;
11334;SDS011;5722;42.620;23.374;2024-03-02T22:07:59;24.73;;;17.97;;
11334;SDS011;5722;42.620;23.374;2024-03-02T22:10:50;26.23;;;18.87;;
11334;SDS011;5722;42.620;23.374;2024-03-02T22:13:39;24.53;;;17.40;;
11334;SDS011;5722;42.620;23.374;2024-03-02T22:16:13;27.07;;;17.60;;
11334;SDS011;5722;42.620;23.374;2024-03-02T22:19:17;25.43;;;18.40;;
11334;SDS011;5722;42.620;23.374;2024-03-02T22:21:46;23.43;;;17.77;;
11334;SDS011;5722;42.620;23.374;2024-03-02T22:24:37;21.73;;;16.33;;
11334;SDS011;5722;42.620;23.374;2024-03-02T22:27:20;27.30;;;19.60;;
11334;SDS011;5722;42.620;23.374;2024-03-02T22:30:02;30.67;;;21.87;;
11334;SDS011;5722;42.620;23.374;2024-03-02T22:32:37;24.20;;;17.57;;
11334;SDS011;5722;42.620;23.374;2024-03-02T22:41:36;32.23;;;19.10;;
11334;SDS011;5722;42.620;23.374;2024-03-02T22:44:20;28.57;;;18.00;;
11334;SDS011;5722;42.620;23.374;2024-03-02T22:46:52;26.67;;;18.17;;
11334;SDS011;5722;42.620;23.374;2024-03-02T22:49:25;25.10;;;17.53;;
11334;SDS011;5722;42.620;23.374;2024-03-02T22:55:31;27.47;;;18.50;;
11334;SDS011;5722;42.620;23.374;2024-03-02T23:01:36;35.40;;;23.33;;
11334;SDS011;5722;42.620;23.374;2024-03-02T23:16:23;35.83;;;24.27;;
11334;SDS011;5722;42.620;23.374;2024-03-02T23:19:13;36.27;;;23.50;;
11334;SDS011;5722;42.620;23.374;2024-03-02T23:59:11;36.37;;;26.53;;
